sensor_id;sensor_type;location;lat;lon;timestamp;P1;durP1;ratioP1;P2;durP2;ratioP2
6513;SDS011;3290;47.716;9.070;2023-03-19T00:01:52;9.57;;;3.80;;
6513;SDS011;3290;47.716;9.070;2023-03-19T00:04:18;8.37;;;3.80;;
6513;SDS011;3290;47.716;9.070;2023-03-19T00:06:43;6.67;;;3.87;;
6513;SDS011;3290;47.716;9.070;2023-03-19T00:09:09;4.30;;;3.50;;
6513;SDS011;3290;47.716;9.070;2023-03-19T00:11:35;6.90;;;3.50;;
6513;SDS011;3290;47.716;9.070;2023-03-19T00:14:00;6.43;;;4.10;;
6513;SDS011;3290;47.716;9.070;2023-03-19T00:16:26;7.63;;;3.60;;
6513;SDS011;3290;47.716;9.070;2023-03-19T00:18:51;6.13;;;3.10;;
6513;SDS011;3290;47.716;9.070;2023-03-19T00:21:17;4.13;;;3.20;;
6513;SDS011;3290;47.716;9.070;2023-03-19T00:23:43;11.13;;;3.33;;
6513;SDS011;3290;47.716;9.070;2023-03-19T00:26:08;13.73;;;3.80;;
6513;SDS011;3290;47.716;9.070;2023-03-19T00:28:34;17.00;;;4.30;;
6513;SDS011;3290;47.716;9.070;2023-03-19T00:31:14;9.10;;;4.43;;
6513;SDS011;3290;47.716;9.070;2023-03-19T00:33:40;9.87;;;4.10;;
6513;SDS011;3290;47.716;9.070;2023-03-19T00:36:07;5.30;;;3.20;;
6513;SDS011;3290;47.716;9.070;2023-03-19T00:38:35;4.60;;;3.83;;
6513;SDS011;3290;47.716;9.070;2023-03-19T00:41:00;7.20;;;3.60;;
6513;SDS011;3290;47.716;9.070;2023-03-19T00:43:26;5.30;;;3.70;;
6513;SDS011;3290;47.716;9.070;2023-03-19T00:45:52;5.67;;;3.87;;
6513;SDS011;3290;47.716;9.070;2023-03-19T00:48:17;8.37;;;3.67;;
6513;SDS011;3290;47.716;9.070;2023-03-19T00:50:43;6.37;;;3.50;;
6513;SDS011;3290;47.716;9.070;2023-03-19T00:53:08;15.37;;;4.40;;
6513;SDS011;3290;47.716;9.070;2023-03-19T00:55:34;6.47;;;3.47;;
6513;SDS011;3290;47.716;9.070;2023-03-19T00:58:00;9.00;;;3.33;;
6513;SDS011;3290;47.716;9.070;2023-03-19T01:00:25;7.17;;;3.07;;
6513;SDS011;3290;47.716;9.070;2023-03-19T01:02:51;5.93;;;3.90;;
6513;SDS011;3290;47.716;9.070;2023-03-19T01:05:17;6.83;;;3.50;;
6513;SDS011;3290;47.716;9.070;2023-03-19T01:07:42;11.90;;;4.20;;
6513;SDS011;3290;47.716;9.070;2023-03-19T01:10:08;5.77;;;3.33;;
6513;SDS011;3290;47.716;9.070;2023-03-19T01:12:34;6.57;;;3.63;;
6513;SDS011;3290;47.716;9.070;2023-03-19T01:14:59;6.67;;;3.30;;
6513;SDS011;3290;47.716;9.070;2023-03-19T01:17:25;7.07;;;3.53;;
6513;SDS011;3290;47.716;9.070;2023-03-19T01:19:50;9.80;;;3.63;;
6513;SDS011;3290;47.716;9.070;2023-03-19T01:22:16;7.27;;;3.40;;
6513;SDS011;3290;47.716;9.070;2023-03-19T01:24:42;5.83;;;3.93;;
6513;SDS011;3290;47.716;9.070;2023-03-19T01:27:07;7.60;;;3.70;;
6513;SDS011;3290;47.716;9.070;2023-03-19T01:29:33;7.23;;;3.33;;
6513;SDS011;3290;47.716;9.070;2023-03-19T01:31:59;5.43;;;3.50;;
6513;SDS011;3290;47.716;9.070;2023-03-19T01:34:24;13.47;;;3.30;;
6513;SDS011;3290;47.716;9.070;2023-03-19T01:36:50;7.13;;;3.50;;
6513;SDS011;3290;47.716;9.070;2023-03-19T01:39:16;7.90;;;3.73;;
6513;SDS011;3290;47.716;9.070;2023-03-19T01:41:41;5.33;;;3.47;;
6513;SDS011;3290;47.716;9.070;2023-03-19T01:44:26;5.67;;;3.63;;
6513;SDS011;3290;47.716;9.070;2023-03-19T01:46:55;6.00;;;2.93;;
6513;SDS011;3290;47.716;9.070;2023-03-19T01:49:22;4.97;;;3.30;;
6513;SDS011;3290;47.716;9.070;2023-03-19T01:51:50;8.77;;;3.73;;
6513;SDS011;3290;47.716;9.070;2023-03-19T01:54:18;5.17;;;3.33;;
6513;SDS011;3290;47.716;9.070;2023-03-19T01:56:47;6.27;;;3.67;;
6513;SDS011;3290;47.716;9.070;2023-03-19T01:59:32;9.97;;;3.50;;
6513;SDS011;3290;47.716;9.070;2023-03-19T02:02:05;7.20;;;3.40;;
6513;SDS011;3290;47.716;9.070;2023-03-19T02:04:31;7.80;;;3.47;;
6513;SDS011;3290;47.716;9.070;2023-03-19T02:07:00;6.90;;;3.60;;
6513;SDS011;3290;47.716;9.070;2023-03-19T02:09:27;6.90;;;4.23;;
6513;SDS011;3290;47.716;9.070;2023-03-19T02:11:53;6.07;;;3.57;;
6513;SDS011;3290;47.716;9.070;2023-03-19T02:14:20;9.97;;;3.60;;
6513;SDS011;3290;47.716;9.070;2023-03-19T02:16:46;5.13;;;3.00;;
6513;SDS011;3290;47.716;9.070;2023-03-19T02:19:13;4.40;;;3.13;;
6513;SDS011;3290;47.716;9.070;2023-03-19T02:21:46;5.10;;;3.20;;
6513;SDS011;3290;47.716;9.070;2023-03-19T02:24:13;6.80;;;3.27;;
6513;SDS011;3290;47.716;9.070;2023-03-19T02:26:43;6.67;;;3.63;;
6513;SDS011;3290;47.716;9.070;2023-03-19T02:29:10;4.40;;;3.37;;
6513;SDS011;3290;47.716;9.070;2023-03-19T02:31:36;7.13;;;3.57;;
6513;SDS011;3290;47.716;9.070;2023-03-19T02:36:35;7.63;;;3.13;;
6513;SDS011;3290;47.716;9.070;2023-03-19T02:39:06;4.03;;;3.30;;
6513;SDS011;3290;47.716;9.070;2023-03-19T02:41:37;9.67;;;3.60;;
6513;SDS011;3290;47.716;9.070;2023-03-19T02:44:05;6.00;;;3.40;;
6513;SDS011;3290;47.716;9.070;2023-03-19T02:46:33;6.70;;;3.13;;
6513;SDS011;3290;47.716;9.070;2023-03-19T02:48:59;5.77;;;3.47;;
6513;SDS011;3290;47.716;9.070;2023-03-19T02:51:24;9.03;;;3.70;;
6513;SDS011;3290;47.716;9.070;2023-03-19T02:53:50;6.33;;;3.40;;
6513;SDS011;3290;47.716;9.070;2023-03-19T02:56:15;6.73;;;3.70;;
6513;SDS011;3290;47.716;9.070;2023-03-19T02:58:40;6.20;;;3.87;;
6513;SDS011;3290;47.716;9.070;2023-03-19T03:01:06;8.73;;;3.80;;
6513;SDS011;3290;47.716;9.070;2023-03-19T03:03:31;10.67;;;4.20;;
6513;SDS011;3290;47.716;9.070;2023-03-19T03:05:57;5.80;;;3.13;;
6513;SDS011;3290;47.716;9.070;2023-03-19T03:08:22;4.63;;;2.80;;
6513;SDS011;3290;47.716;9.070;2023-03-19T03:10:48;8.77;;;3.40;;
6513;SDS011;3290;47.716;9.070;2023-03-19T03:13:13;6.60;;;3.70;;
6513;SDS011;3290;47.716;9.070;2023-03-19T03:15:38;4.93;;;3.40;;
6513;SDS011;3290;47.716;9.070;2023-03-19T03:18:04;7.80;;;3.40;;
6513;SDS011;3290;47.716;9.070;2023-03-19T03:20:30;6.40;;;3.80;;
6513;SDS011;3290;47.716;9.070;2023-03-19T03:22:55;4.67;;;3.30;;
6513;SDS011;3290;47.716;9.070;2023-03-19T03:25:21;6.07;;;3.77;;
6513;SDS011;3290;47.716;9.070;2023-03-19T03:27:46;7.40;;;3.37;;
6513;SDS011;3290;47.716;9.070;2023-03-19T03:30:12;8.70;;;4.23;;
6513;SDS011;3290;47.716;9.070;2023-03-19T03:32:40;11.33;;;3.67;;
6513;SDS011;3290;47.716;9.070;2023-03-19T03:35:06;4.57;;;3.10;;
6513;SDS011;3290;47.716;9.070;2023-03-19T03:37:33;6.53;;;3.30;;
6513;SDS011;3290;47.716;9.070;2023-03-19T03:39:59;5.73;;;3.13;;
6513;SDS011;3290;47.716;9.070;2023-03-19T03:42:24;7.50;;;3.43;;
6513;SDS011;3290;47.716;9.070;2023-03-19T03:44:49;7.47;;;3.90;;
6513;SDS011;3290;47.716;9.070;2023-03-19T03:47:15;9.80;;;3.90;;
6513;SDS011;3290;47.716;9.070;2023-03-19T03:49:42;6.87;;;3.50;;
6513;SDS011;3290;47.716;9.070;2023-03-19T03:52:08;7.63;;;3.63;;
6513;SDS011;3290;47.716;9.070;2023-03-19T03:54:33;6.90;;;3.23;;
6513;SDS011;3290;47.716;9.070;2023-03-19T03:56:59;4.93;;;3.07;;
6513;SDS011;3290;47.716;9.070;2023-03-19T03:59:26;5.13;;;3.30;;
6513;SDS011;3290;47.716;9.070;2023-03-19T04:01:51;8.70;;;3.43;;
6513;SDS011;3290;47.716;9.070;2023-03-19T04:04:16;6.57;;;3.37;;
6513;SDS011;3290;47.716;9.070;2023-03-19T04:06:44;11.87;;;4.20;;
6513;SDS011;3290;47.716;9.070;2023-03-19T04:09:10;6.20;;;4.50;;
6513;SDS011;3290;47.716;9.070;2023-03-19T04:11:35;8.10;;;4.40;;
6513;SDS011;3290;47.716;9.070;2023-03-19T04:14:01;6.57;;;3.90;;
6513;SDS011;3290;47.716;9.070;2023-03-19T04:16:28;9.70;;;3.63;;
6513;SDS011;3290;47.716;9.070;2023-03-19T04:18:53;8.67;;;4.13;;
6513;SDS011;3290;47.716;9.070;2023-03-19T04:21:19;7.37;;;3.90;;
6513;SDS011;3290;47.716;9.070;2023-03-19T04:23:45;4.53;;;3.50;;
6513;SDS011;3290;47.716;9.070;2023-03-19T04:26:10;8.47;;;3.63;;
6513;SDS011;3290;47.716;9.070;2023-03-19T04:28:36;11.77;;;5.13;;
6513;SDS011;3290;47.716;9.070;2023-03-19T04:31:02;5.60;;;3.20;;
6513;SDS011;3290;47.716;9.070;2023-03-19T04:33:31;5.10;;;3.40;;
6513;SDS011;3290;47.716;9.070;2023-03-19T04:35:58;7.00;;;3.67;;
6513;SDS011;3290;47.716;9.070;2023-03-19T04:38:24;5.77;;;4.07;;
6513;SDS011;3290;47.716;9.070;2023-03-19T04:40:53;7.87;;;3.77;;
6513;SDS011;3290;47.716;9.070;2023-03-19T04:43:20;6.43;;;3.40;;
6513;SDS011;3290;47.716;9.070;2023-03-19T04:45:46;6.77;;;4.23;;
6513;SDS011;3290;47.716;9.070;2023-03-19T04:48:11;4.30;;;3.50;;
6513;SDS011;3290;47.716;9.070;2023-03-19T04:50:37;8.17;;;3.63;;
6513;SDS011;3290;47.716;9.070;2023-03-19T04:53:04;10.77;;;3.60;;
6513;SDS011;3290;47.716;9.070;2023-03-19T04:55:29;8.70;;;3.37;;
6513;SDS011;3290;47.716;9.070;2023-03-19T04:57:55;6.10;;;3.40;;
6513;SDS011;3290;47.716;9.070;2023-03-19T05:00:20;5.03;;;3.40;;
6513;SDS011;3290;47.716;9.070;2023-03-19T05:02:46;8.97;;;3.33;;
6513;SDS011;3290;47.716;9.070;2023-03-19T05:05:11;12.10;;;3.73;;
6513;SDS011;3290;47.716;9.070;2023-03-19T05:07:37;5.73;;;3.10;;
6513;SDS011;3290;47.716;9.070;2023-03-19T05:10:04;6.37;;;3.10;;
6513;SDS011;3290;47.716;9.070;2023-03-19T05:12:29;7.17;;;3.17;;
6513;SDS011;3290;47.716;9.070;2023-03-19T05:14:56;4.77;;;3.20;;
6513;SDS011;3290;47.716;9.070;2023-03-19T05:17:21;5.20;;;3.37;;
6513;SDS011;3290;47.716;9.070;2023-03-19T05:19:47;9.50;;;4.53;;
6513;SDS011;3290;47.716;9.070;2023-03-19T05:22:12;11.30;;;3.37;;
6513;SDS011;3290;47.716;9.070;2023-03-19T05:24:38;4.87;;;3.20;;
6513;SDS011;3290;47.716;9.070;2023-03-19T05:27:03;4.60;;;3.17;;
6513;SDS011;3290;47.716;9.070;2023-03-19T05:29:28;7.50;;;3.87;;
6513;SDS011;3290;47.716;9.070;2023-03-19T05:31:54;5.43;;;3.70;;
6513;SDS011;3290;47.716;9.070;2023-03-19T05:34:19;4.60;;;3.30;;
6513;SDS011;3290;47.716;9.070;2023-03-19T05:36:45;7.37;;;3.80;;
6513;SDS011;3290;47.716;9.070;2023-03-19T05:39:10;11.30;;;4.20;;
6513;SDS011;3290;47.716;9.070;2023-03-19T05:41:35;12.10;;;4.20;;
6513;SDS011;3290;47.716;9.070;2023-03-19T05:44:01;6.90;;;3.00;;
6513;SDS011;3290;47.716;9.070;2023-03-19T05:46:26;7.87;;;3.37;;
6513;SDS011;3290;47.716;9.070;2023-03-19T05:48:52;8.03;;;3.20;;
6513;SDS011;3290;47.716;9.070;2023-03-19T05:51:17;9.77;;;3.57;;
6513;SDS011;3290;47.716;9.070;2023-03-19T05:53:42;7.77;;;2.90;;
6513;SDS011;3290;47.716;9.070;2023-03-19T05:56:08;5.23;;;3.53;;
6513;SDS011;3290;47.716;9.070;2023-03-19T05:58:33;5.70;;;3.27;;
6513;SDS011;3290;47.716;9.070;2023-03-19T06:00:59;6.77;;;3.50;;
6513;SDS011;3290;47.716;9.070;2023-03-19T06:03:24;6.20;;;3.87;;
6513;SDS011;3290;47.716;9.070;2023-03-19T06:05:51;9.00;;;3.30;;
6513;SDS011;3290;47.716;9.070;2023-03-19T06:08:17;9.03;;;3.90;;
6513;SDS011;3290;47.716;9.070;2023-03-19T06:10:43;8.80;;;3.70;;
6513;SDS011;3290;47.716;9.070;2023-03-19T06:13:10;7.43;;;3.63;;
6513;SDS011;3290;47.716;9.070;2023-03-19T06:15:36;8.13;;;4.93;;
6513;SDS011;3290;47.716;9.070;2023-03-19T06:18:02;10.13;;;5.27;;
6513;SDS011;3290;47.716;9.070;2023-03-19T06:20:27;11.00;;;6.53;;
6513;SDS011;3290;47.716;9.070;2023-03-19T06:22:53;8.10;;;5.20;;
6513;SDS011;3290;47.716;9.070;2023-03-19T06:25:19;8.50;;;4.50;;
6513;SDS011;3290;47.716;9.070;2023-03-19T06:27:44;7.33;;;4.80;;
6513;SDS011;3290;47.716;9.070;2023-03-19T06:30:10;5.30;;;4.00;;
6513;SDS011;3290;47.716;9.070;2023-03-19T06:32:36;8.27;;;4.80;;
6513;SDS011;3290;47.716;9.070;2023-03-19T06:35:02;7.27;;;3.30;;
6513;SDS011;3290;47.716;9.070;2023-03-19T06:37:27;8.67;;;4.23;;
6513;SDS011;3290;47.716;9.070;2023-03-19T06:39:53;7.73;;;3.30;;
6513;SDS011;3290;47.716;9.070;2023-03-19T06:42:19;6.20;;;3.70;;
6513;SDS011;3290;47.716;9.070;2023-03-19T06:44:45;5.97;;;3.60;;
6513;SDS011;3290;47.716;9.070;2023-03-19T06:47:11;7.40;;;3.03;;
6513;SDS011;3290;47.716;9.070;2023-03-19T06:49:36;5.70;;;3.50;;
6513;SDS011;3290;47.716;9.070;2023-03-19T06:52:02;11.03;;;3.30;;
6513;SDS011;3290;47.716;9.070;2023-03-19T06:54:27;7.10;;;3.47;;
6513;SDS011;3290;47.716;9.070;2023-03-19T06:56:53;10.50;;;3.80;;
6513;SDS011;3290;47.716;9.070;2023-03-19T06:59:18;5.77;;;3.73;;
6513;SDS011;3290;47.716;9.070;2023-03-19T07:01:43;10.03;;;4.40;;
6513;SDS011;3290;47.716;9.070;2023-03-19T07:04:10;5.80;;;3.47;;
6513;SDS011;3290;47.716;9.070;2023-03-19T07:06:36;5.87;;;3.73;;
6513;SDS011;3290;47.716;9.070;2023-03-19T07:09:01;5.60;;;3.50;;
6513;SDS011;3290;47.716;9.070;2023-03-19T07:11:28;10.87;;;3.70;;
6513;SDS011;3290;47.716;9.070;2023-03-19T07:13:53;5.13;;;3.53;;
6513;SDS011;3290;47.716;9.070;2023-03-19T07:16:18;9.10;;;3.50;;
6513;SDS011;3290;47.716;9.070;2023-03-19T07:18:44;6.23;;;3.60;;
6513;SDS011;3290;47.716;9.070;2023-03-19T07:21:09;4.87;;;3.57;;
6513;SDS011;3290;47.716;9.070;2023-03-19T07:23:35;3.63;;;2.83;;
6513;SDS011;3290;47.716;9.070;2023-03-19T07:26:00;4.77;;;3.50;;
6513;SDS011;3290;47.716;9.070;2023-03-19T07:28:25;5.20;;;3.60;;
6513;SDS011;3290;47.716;9.070;2023-03-19T07:30:51;10.73;;;3.90;;
6513;SDS011;3290;47.716;9.070;2023-03-19T07:33:17;11.03;;;3.70;;
6513;SDS011;3290;47.716;9.070;2023-03-19T07:35:44;7.93;;;3.80;;
6513;SDS011;3290;47.716;9.070;2023-03-19T07:38:09;6.47;;;3.30;;
6513;SDS011;3290;47.716;9.070;2023-03-19T07:40:35;10.43;;;3.57;;
6513;SDS011;3290;47.716;9.070;2023-03-19T07:43:00;7.73;;;3.80;;
6513;SDS011;3290;47.716;9.070;2023-03-19T07:45:26;8.93;;;3.83;;
6513;SDS011;3290;47.716;9.070;2023-03-19T07:47:51;9.63;;;3.67;;
6513;SDS011;3290;47.716;9.070;2023-03-19T07:50:17;7.27;;;4.20;;
6513;SDS011;3290;47.716;9.070;2023-03-19T07:52:44;8.60;;;3.70;;
6513;SDS011;3290;47.716;9.070;2023-03-19T07:55:11;7.20;;;3.70;;
6513;SDS011;3290;47.716;9.070;2023-03-19T07:57:37;11.40;;;5.60;;
6513;SDS011;3290;47.716;9.070;2023-03-19T08:00:02;7.50;;;4.97;;
6513;SDS011;3290;47.716;9.070;2023-03-19T08:02:28;6.60;;;4.33;;
6513;SDS011;3290;47.716;9.070;2023-03-19T08:04:54;6.60;;;4.47;;
6513;SDS011;3290;47.716;9.070;2023-03-19T08:07:20;8.13;;;3.60;;
6513;SDS011;3290;47.716;9.070;2023-03-19T08:09:46;5.63;;;3.40;;
6513;SDS011;3290;47.716;9.070;2023-03-19T08:12:12;9.37;;;4.70;;
6513;SDS011;3290;47.716;9.070;2023-03-19T08:14:37;6.80;;;3.90;;
6513;SDS011;3290;47.716;9.070;2023-03-19T08:17:03;13.50;;;4.10;;
6513;SDS011;3290;47.716;9.070;2023-03-19T08:19:29;8.50;;;5.00;;
6513;SDS011;3290;47.716;9.070;2023-03-19T08:21:54;6.40;;;3.63;;
6513;SDS011;3290;47.716;9.070;2023-03-19T08:24:20;8.50;;;5.00;;
6513;SDS011;3290;47.716;9.070;2023-03-19T08:26:46;10.57;;;4.10;;
6513;SDS011;3290;47.716;9.070;2023-03-19T08:29:11;8.33;;;4.20;;
6513;SDS011;3290;47.716;9.070;2023-03-19T08:31:37;11.97;;;4.47;;
6513;SDS011;3290;47.716;9.070;2023-03-19T08:34:02;6.83;;;3.83;;
6513;SDS011;3290;47.716;9.070;2023-03-19T08:36:29;6.13;;;3.70;;
6513;SDS011;3290;47.716;9.070;2023-03-19T08:38:55;6.57;;;4.00;;
6513;SDS011;3290;47.716;9.070;2023-03-19T08:41:20;6.73;;;2.97;;
6513;SDS011;3290;47.716;9.070;2023-03-19T08:43:46;5.80;;;3.63;;
6513;SDS011;3290;47.716;9.070;2023-03-19T08:46:12;8.13;;;3.83;;
6513;SDS011;3290;47.716;9.070;2023-03-19T08:48:37;4.83;;;2.73;;
6513;SDS011;3290;47.716;9.070;2023-03-19T08:51:03;8.37;;;3.53;;
6513;SDS011;3290;47.716;9.070;2023-03-19T08:53:29;5.53;;;3.40;;
6513;SDS011;3290;47.716;9.070;2023-03-19T08:55:57;6.53;;;3.60;;
6513;SDS011;3290;47.716;9.070;2023-03-19T08:58:24;6.87;;;3.90;;
6513;SDS011;3290;47.716;9.070;2023-03-19T09:00:50;6.57;;;3.03;;
6513;SDS011;3290;47.716;9.070;2023-03-19T09:03:17;7.93;;;3.57;;
6513;SDS011;3290;47.716;9.070;2023-03-19T09:05:43;8.23;;;3.90;;
6513;SDS011;3290;47.716;9.070;2023-03-19T09:08:09;5.90;;;3.40;;
6513;SDS011;3290;47.716;9.070;2023-03-19T09:10:35;6.63;;;4.10;;
6513;SDS011;3290;47.716;9.070;2023-03-19T09:13:01;7.33;;;3.03;;
6513;SDS011;3290;47.716;9.070;2023-03-19T09:15:27;7.43;;;3.43;;
6513;SDS011;3290;47.716;9.070;2023-03-19T09:17:53;10.03;;;4.40;;
6513;SDS011;3290;47.716;9.070;2023-03-19T09:20:18;7.20;;;4.37;;
6513;SDS011;3290;47.716;9.070;2023-03-19T09:22:44;6.50;;;3.20;;
6513;SDS011;3290;47.716;9.070;2023-03-19T09:25:10;6.27;;;2.90;;
6513;SDS011;3290;47.716;9.070;2023-03-19T09:27:36;7.10;;;3.47;;
6513;SDS011;3290;47.716;9.070;2023-03-19T09:30:02;5.17;;;3.20;;
6513;SDS011;3290;47.716;9.070;2023-03-19T09:32:28;8.63;;;3.20;;
6513;SDS011;3290;47.716;9.070;2023-03-19T09:34:53;7.67;;;3.63;;
6513;SDS011;3290;47.716;9.070;2023-03-19T09:37:19;8.57;;;3.73;;
6513;SDS011;3290;47.716;9.070;2023-03-19T09:39:44;7.13;;;3.60;;
6513;SDS011;3290;47.716;9.070;2023-03-19T09:44:44;5.90;;;3.50;;
6513;SDS011;3290;47.716;9.070;2023-03-19T09:49:59;7.70;;;3.37;;
6513;SDS011;3290;47.716;9.070;2023-03-19T09:52:40;8.73;;;3.60;;
6513;SDS011;3290;47.716;9.070;2023-03-19T09:55:10;9.50;;;3.27;;
6513;SDS011;3290;47.716;9.070;2023-03-19T09:57:44;7.13;;;3.20;;
6513;SDS011;3290;47.716;9.070;2023-03-19T10:13:58;7.20;;;3.57;;
6513;SDS011;3290;47.716;9.070;2023-03-19T10:16:33;4.50;;;3.03;;
6513;SDS011;3290;47.716;9.070;2023-03-19T10:19:02;7.20;;;3.70;;
6513;SDS011;3290;47.716;9.070;2023-03-19T10:21:32;3.47;;;2.33;;
6513;SDS011;3290;47.716;9.070;2023-03-19T10:24:13;7.37;;;3.30;;
6513;SDS011;3290;47.716;9.070;2023-03-19T10:26:46;3.63;;;2.67;;
6513;SDS011;3290;47.716;9.070;2023-03-19T10:34:42;6.57;;;2.53;;
6513;SDS011;3290;47.716;9.070;2023-03-19T10:37:14;4.80;;;2.97;;
6513;SDS011;3290;47.716;9.070;2023-03-19T10:39:45;4.30;;;2.60;;
6513;SDS011;3290;47.716;9.070;2023-03-19T10:44:48;3.37;;;2.43;;
6513;SDS011;3290;47.716;9.070;2023-03-19T10:47:18;4.07;;;2.40;;
6513;SDS011;3290;47.716;9.070;2023-03-19T10:49:44;4.60;;;2.30;;
6513;SDS011;3290;47.716;9.070;2023-03-19T10:55:01;4.30;;;2.60;;
6513;SDS011;3290;47.716;9.070;2023-03-19T10:57:31;5.60;;;2.47;;
6513;SDS011;3290;47.716;9.070;2023-03-19T11:00:00;4.10;;;2.37;;
6513;SDS011;3290;47.716;9.070;2023-03-19T11:02:29;2.60;;;1.83;;
6513;SDS011;3290;47.716;9.070;2023-03-19T11:08:14;4.10;;;2.60;;
6513;SDS011;3290;47.716;9.070;2023-03-19T11:10:47;2.70;;;1.90;;
6513;SDS011;3290;47.716;9.070;2023-03-19T11:13:20;2.33;;;2.00;;
6513;SDS011;3290;47.716;9.070;2023-03-19T11:15:48;4.13;;;2.10;;
6513;SDS011;3290;47.716;9.070;2023-03-19T11:18:22;5.77;;;2.30;;
6513;SDS011;3290;47.716;9.070;2023-03-19T11:20:58;2.50;;;1.70;;
6513;SDS011;3290;47.716;9.070;2023-03-19T11:23:29;6.00;;;1.93;;
6513;SDS011;3290;47.716;9.070;2023-03-19T11:26:01;2.40;;;1.90;;
6513;SDS011;3290;47.716;9.070;2023-03-19T11:28:27;4.07;;;2.40;;
6513;SDS011;3290;47.716;9.070;2023-03-19T11:39:08;9.70;;;4.70;;
6513;SDS011;3290;47.716;9.070;2023-03-19T11:50:24;3.47;;;2.50;;
6513;SDS011;3290;47.716;9.070;2023-03-19T12:01:37;8.60;;;2.23;;
6513;SDS011;3290;47.716;9.070;2023-03-19T12:06:56;7.03;;;2.50;;
6513;SDS011;3290;47.716;9.070;2023-03-19T12:25:36;4.80;;;2.27;;
6513;SDS011;3290;47.716;9.070;2023-03-19T12:28:18;2.73;;;2.07;;
6513;SDS011;3290;47.716;9.070;2023-03-19T12:36:10;5.53;;;2.00;;
6513;SDS011;3290;47.716;9.070;2023-03-19T12:41:44;5.10;;;2.23;;
6513;SDS011;3290;47.716;9.070;2023-03-19T12:46:42;5.03;;;2.47;;
6513;SDS011;3290;47.716;9.070;2023-03-19T12:49:14;2.37;;;1.90;;
6513;SDS011;3290;47.716;9.070;2023-03-19T12:52:23;4.07;;;2.10;;
6513;SDS011;3290;47.716;9.070;2023-03-19T12:54:57;6.10;;;2.10;;
6513;SDS011;3290;47.716;9.070;2023-03-19T12:57:31;3.90;;;2.80;;
6513;SDS011;3290;47.716;9.070;2023-03-19T13:08:19;4.43;;;2.30;;
6513;SDS011;3290;47.716;9.070;2023-03-19T13:10:51;3.60;;;2.10;;
6513;SDS011;3290;47.716;9.070;2023-03-19T13:15:46;4.40;;;2.20;;
6513;SDS011;3290;47.716;9.070;2023-03-19T13:21:03;7.53;;;2.30;;
6513;SDS011;3290;47.716;9.070;2023-03-19T13:23:40;2.10;;;1.70;;
6513;SDS011;3290;47.716;9.070;2023-03-19T13:26:09;11.00;;;2.63;;
6513;SDS011;3290;47.716;9.070;2023-03-19T13:28:37;5.60;;;1.83;;
6513;SDS011;3290;47.716;9.070;2023-03-19T13:31:25;2.73;;;1.70;;
6513;SDS011;3290;47.716;9.070;2023-03-19T13:34:00;2.80;;;1.97;;
6513;SDS011;3290;47.716;9.070;2023-03-19T13:36:28;6.50;;;1.97;;
6513;SDS011;3290;47.716;9.070;2023-03-19T13:38:56;2.50;;;2.03;;
6513;SDS011;3290;47.716;9.070;2023-03-19T13:46:46;3.67;;;1.80;;
6513;SDS011;3290;47.716;9.070;2023-03-19T13:51:49;3.47;;;2.00;;
6513;SDS011;3290;47.716;9.070;2023-03-19T13:54:18;4.50;;;2.13;;
6513;SDS011;3290;47.716;9.070;2023-03-19T14:01:55;2.80;;;2.00;;
6513;SDS011;3290;47.716;9.070;2023-03-19T14:09:35;4.00;;;2.20;;
6513;SDS011;3290;47.716;9.070;2023-03-19T14:17:40;5.40;;;2.20;;
6513;SDS011;3290;47.716;9.070;2023-03-19T14:22:36;6.40;;;2.07;;
6513;SDS011;3290;47.716;9.070;2023-03-19T14:25:23;2.97;;;1.87;;
6513;SDS011;3290;47.716;9.070;2023-03-19T14:27:55;3.20;;;1.83;;
6513;SDS011;3290;47.716;9.070;2023-03-19T14:30:31;5.37;;;2.30;;
6513;SDS011;3290;47.716;9.070;2023-03-19T14:33:03;5.17;;;2.30;;
6513;SDS011;3290;47.716;9.070;2023-03-19T14:35:33;2.90;;;1.80;;
6513;SDS011;3290;47.716;9.070;2023-03-19T14:38:03;2.50;;;1.83;;
6513;SDS011;3290;47.716;9.070;2023-03-19T14:40:42;2.30;;;1.70;;
6513;SDS011;3290;47.716;9.070;2023-03-19T14:43:12;3.50;;;1.80;;
6513;SDS011;3290;47.716;9.070;2023-03-19T14:45:54;8.03;;;2.10;;
6513;SDS011;3290;47.716;9.070;2023-03-19T14:53:43;3.60;;;2.40;;
6513;SDS011;3290;47.716;9.070;2023-03-19T14:56:24;4.47;;;2.30;;
6513;SDS011;3290;47.716;9.070;2023-03-19T14:58:55;5.50;;;2.20;;
6513;SDS011;3290;47.716;9.070;2023-03-19T15:01:23;3.37;;;2.60;;
6513;SDS011;3290;47.716;9.070;2023-03-19T15:04:03;6.10;;;2.43;;
6513;SDS011;3290;47.716;9.070;2023-03-19T15:06:39;4.30;;;2.83;;
6513;SDS011;3290;47.716;9.070;2023-03-19T15:09:17;7.23;;;5.47;;
6513;SDS011;3290;47.716;9.070;2023-03-19T15:15:07;3.53;;;2.40;;
6513;SDS011;3290;47.716;9.070;2023-03-19T15:19:47;3.33;;;2.10;;
6513;SDS011;3290;47.716;9.070;2023-03-19T15:22:14;4.73;;;2.33;;
6513;SDS011;3290;47.716;9.070;2023-03-19T15:24:44;3.80;;;2.30;;
6513;SDS011;3290;47.716;9.070;2023-03-19T15:27:18;3.00;;;2.13;;
6513;SDS011;3290;47.716;9.070;2023-03-19T15:29:44;4.03;;;2.17;;
6513;SDS011;3290;47.716;9.070;2023-03-19T15:32:09;9.43;;;2.47;;
6513;SDS011;3290;47.716;9.070;2023-03-19T15:34:34;5.70;;;3.07;;
6513;SDS011;3290;47.716;9.070;2023-03-19T15:37:06;9.87;;;4.40;;
6513;SDS011;3290;47.716;9.070;2023-03-19T15:39:42;14.33;;;5.93;;
6513;SDS011;3290;47.716;9.070;2023-03-19T15:42:13;7.30;;;3.10;;
6513;SDS011;3290;47.716;9.070;2023-03-19T15:44:45;7.57;;;2.70;;
6513;SDS011;3290;47.716;9.070;2023-03-19T15:47:21;3.57;;;1.80;;
6513;SDS011;3290;47.716;9.070;2023-03-19T15:49:57;3.77;;;2.17;;
6513;SDS011;3290;47.716;9.070;2023-03-19T15:52:28;5.73;;;2.20;;
6513;SDS011;3290;47.716;9.070;2023-03-19T15:54:58;3.40;;;2.20;;
6513;SDS011;3290;47.716;9.070;2023-03-19T15:57:25;2.40;;;1.80;;
6513;SDS011;3290;47.716;9.070;2023-03-19T15:59:51;3.50;;;2.00;;
6513;SDS011;3290;47.716;9.070;2023-03-19T16:02:24;1.63;;;1.50;;
6513;SDS011;3290;47.716;9.070;2023-03-19T16:04:52;1.87;;;1.23;;
6513;SDS011;3290;47.716;9.070;2023-03-19T16:07:21;6.17;;;1.33;;
6513;SDS011;3290;47.716;9.070;2023-03-19T16:09:50;2.57;;;1.97;;
6513;SDS011;3290;47.716;9.070;2023-03-19T16:12:34;5.17;;;2.03;;
6513;SDS011;3290;47.716;9.070;2023-03-19T16:15:01;1.60;;;1.50;;
6513;SDS011;3290;47.716;9.070;2023-03-19T16:17:49;2.40;;;1.90;;
6513;SDS011;3290;47.716;9.070;2023-03-19T16:20:14;2.27;;;1.83;;
6513;SDS011;3290;47.716;9.070;2023-03-19T16:22:40;2.43;;;1.67;;
6513;SDS011;3290;47.716;9.070;2023-03-19T16:25:16;2.60;;;1.73;;
6513;SDS011;3290;47.716;9.070;2023-03-19T16:27:43;4.70;;;2.10;;
6513;SDS011;3290;47.716;9.070;2023-03-19T16:30:31;3.50;;;1.70;;
6513;SDS011;3290;47.716;9.070;2023-03-19T16:32:59;2.03;;;1.73;;
6513;SDS011;3290;47.716;9.070;2023-03-19T16:35:27;2.63;;;1.70;;
6513;SDS011;3290;47.716;9.070;2023-03-19T16:38:04;2.27;;;1.80;;
6513;SDS011;3290;47.716;9.070;2023-03-19T16:40:40;4.83;;;1.93;;
6513;SDS011;3290;47.716;9.070;2023-03-19T16:43:20;2.60;;;1.90;;
6513;SDS011;3290;47.716;9.070;2023-03-19T16:46:20;3.17;;;2.20;;
6513;SDS011;3290;47.716;9.070;2023-03-19T16:48:40;2.70;;;1.40;;
6513;SDS011;3290;47.716;9.070;2023-03-19T16:51:13;1.70;;;1.60;;
6513;SDS011;3290;47.716;9.070;2023-03-19T16:53:42;2.00;;;1.77;;
6513;SDS011;3290;47.716;9.070;2023-03-19T16:56:08;2.20;;;1.87;;
6513;SDS011;3290;47.716;9.070;2023-03-19T16:58:41;3.03;;;1.93;;
6513;SDS011;3290;47.716;9.070;2023-03-19T17:01:15;2.30;;;1.93;;
6513;SDS011;3290;47.716;9.070;2023-03-19T17:03:42;3.20;;;2.00;;
6513;SDS011;3290;47.716;9.070;2023-03-19T17:06:09;2.77;;;1.97;;
6513;SDS011;3290;47.716;9.070;2023-03-19T17:08:35;3.57;;;2.30;;
6513;SDS011;3290;47.716;9.070;2023-03-19T17:11:01;3.40;;;2.37;;
6513;SDS011;3290;47.716;9.070;2023-03-19T17:13:26;2.10;;;1.90;;
6513;SDS011;3290;47.716;9.070;2023-03-19T17:15:54;3.10;;;2.23;;
6513;SDS011;3290;47.716;9.070;2023-03-19T17:18:23;4.20;;;2.23;;
6513;SDS011;3290;47.716;9.070;2023-03-19T17:20:55;6.03;;;2.57;;
6513;SDS011;3290;47.716;9.070;2023-03-19T17:23:24;6.17;;;2.87;;
6513;SDS011;3290;47.716;9.070;2023-03-19T17:25:51;3.43;;;2.63;;
6513;SDS011;3290;47.716;9.070;2023-03-19T17:28:17;2.90;;;2.00;;
6513;SDS011;3290;47.716;9.070;2023-03-19T17:30:43;5.87;;;2.60;;
6513;SDS011;3290;47.716;9.070;2023-03-19T17:33:22;6.20;;;2.83;;
6513;SDS011;3290;47.716;9.070;2023-03-19T17:35:51;10.77;;;5.67;;
6513;SDS011;3290;47.716;9.070;2023-03-19T17:38:17;25.33;;;11.03;;
6513;SDS011;3290;47.716;9.070;2023-03-19T17:40:45;8.30;;;4.70;;
6513;SDS011;3290;47.716;9.070;2023-03-19T17:43:11;2.70;;;2.00;;